Time;durP1;ratioP1;P1;durP2;ratioP2;P2;SDS_P1;SDS_P2;PMS_P1;PMS_P2;Temp;Humidity;BMP_temperature;BMP_pressure;BME280_temperature;BME280_humidity;BME280_pressure;Samples;Min_cycle;Max_cycle;Signal;HPM_P1;HPM_P2
2022/01/28 00:01:54;;;;;;;31.10;11.73;;;4.20;93.90;;;;;;6229262;28;20046;-79
2022/01/28 00:04:55;;;;;;;32.20;11.68;;;4.20;93.80;;;;;;6228770;28;20038;-78
2022/01/28 00:07:59;;;;;;;33.33;12.98;;;4.20;93.60;;;;;;6228853;28;20126;-79
2022/01/28 00:11:00;;;;;;;21.10;11.00;;;4.20;93.60;;;;;;6228561;28;20132;-79
2022/01/28 00:14:13;;;;;;;26.50;11.07;;;4.20;93.70;;;;;;6228983;28;20492;-79
2022/01/28 00:17:46;;;;;;;28.75;12.02;;;4.20;93.60;;;;;;6228630;28;20053;-79
2022/01/28 00:21:05;;;;;;;23.77;9.73;;;4.30;93.60;;;;;;6228309;28;20076;-79
2022/01/28 00:37:48;;;;;;;22.30;8.90;;;4.50;93.20;;;;;;6226952;28;19917;-78
2022/01/28 00:40:49;;;;;;;26.02;10.00;;;4.50;93.10;;;;;;6225637;28;20534;-79
2022/01/28 00:43:51;;;;;;;26.13;10.30;;;4.50;93.20;;;;;;6226949;28;20133;-78
2022/01/28 00:46:53;;;;;;;29.45;11.68;;;4.60;93.20;;;;;;6226471;28;20068;-79
2022/01/28 00:49:55;;;;;;;24.85;11.90;;;4.60;93.10;;;;;;6227966;28;20515;-79
2022/01/28 00:52:56;;;;;;;26.55;10.38;;;4.60;93.00;;;;;;6226648;28;20049;-79
2022/01/28 00:55:59;;;;;;;23.77;10.27;;;4.60;93.10;;;;;;6226744;28;20129;-78
2022/01/28 00:59:01;;;;;;;24.85;10.27;;;4.60;93.10;;;;;;6226613;28;20080;-78
2022/01/28 01:02:03;;;;;;;20.48;11.25;;;4.60;93.10;;;;;;6230616;28;20049;-79
2022/01/28 01:05:05;;;;;;;27.95;10.23;;;4.60;93.00;;;;;;6230169;28;20418;-79
2022/01/28 01:08:08;;;;;;;28.80;9.30;;;4.60;93.00;;;;;;6230104;28;20056;-78
2022/01/28 01:11:11;;;;;;;23.20;10.18;;;4.60;93.00;;;;;;6229470;28;20105;-78
2022/01/28 01:14:13;;;;;;;22.70;9.55;;;4.70;93.10;;;;;;6229563;28;20431;-78
2022/01/28 01:17:26;;;;;;;22.50;9.05;;;4.70;93.00;;;;;;6229392;28;20671;-79
2022/01/28 01:20:54;;;;;;;22.80;9.45;;;4.80;92.90;;;;;;6229896;28;20073;-78
2022/01/28 01:23:57;;;;;;;22.60;10.35;;;4.80;92.90;;;;;;6237451;28;20042;-76
2022/01/28 01:27:01;;;;;;;29.10;10.38;;;4.70;92.80;;;;;;6252666;28;20506;-77
2022/01/28 01:30:03;;;;;;;24.70;9.70;;;4.70;92.80;;;;;;6238072;28;20050;-79
2022/01/28 01:33:04;;;;;;;21.77;10.73;;;4.80;92.90;;;;;;6230393;28;20414;-79
2022/01/28 01:36:06;;;;;;;23.02;10.55;;;4.80;92.80;;;;;;6229308;28;20117;-79
2022/01/28 01:39:09;;;;;;;22.52;10.82;;;4.80;92.80;;;;;;6229587;28;20064;-78
2022/01/28 01:42:22;;;;;;;20.27;9.70;;;4.80;92.90;;;;;;6233535;28;20149;-79
2022/01/28 01:45:50;;;;;;;25.02;11.48;;;4.90;92.80;;;;;;6235300;28;20165;-78
2022/01/28 01:52:11;;;;;;;20.88;9.70;;;4.90;92.70;;;;;;6233683;28;20415;-79
2022/01/28 01:55:13;;;;;;;22.65;9.15;;;5.00;92.70;;;;;;6231127;28;20048;-79
2022/01/28 01:58:20;;;;;;;23.30;10.00;;;5.00;92.60;;;;;;6217637;28;20141;-79
2022/01/28 02:01:21;;;;;;;29.92;11.63;;;5.00;92.50;;;;;;6207107;28;20057;-79
2022/01/28 02:04:23;;;;;;;22.35;11.02;;;5.00;92.50;;;;;;6204476;28;20046;-79
2022/01/28 02:07:27;;;;;;;24.73;9.05;;;5.00;92.50;;;;;;6203875;28;20512;-79
2022/01/28 02:10:29;;;;;;;27.35;10.93;;;5.00;92.50;;;;;;6203636;28;20050;-78
2022/01/28 02:13:36;;;;;;;25.15;10.40;;;5.10;92.40;;;;;;6203952;28;20565;-79
2022/01/28 02:16:38;;;;;;;28.80;11.20;;;5.00;92.40;;;;;;6206804;28;20423;-79
2022/01/28 02:19:40;;;;;;;23.23;10.60;;;5.10;92.50;;;;;;6205930;28;20046;-79
2022/01/28 02:22:43;;;;;;;32.85;10.70;;;5.10;92.40;;;;;;6205082;28;20042;-79
2022/01/28 02:25:45;;;;;;;27.63;10.02;;;5.00;92.50;;;;;;6204726;28;20077;-79
2022/01/28 02:28:51;;;;;;;25.85;10.93;;;5.00;92.50;;;;;;6204639;28;20050;-79
2022/01/28 02:31:53;;;;;;;25.58;11.05;;;5.10;92.50;;;;;;6204126;28;20061;-79
2022/01/28 02:34:55;;;;;;;21.85;9.15;;;5.10;92.50;;;;;;6203491;28;20496;-79
2022/01/28 02:37:58;;;;;;;23.10;9.77;;;5.10;92.50;;;;;;6204466;28;20077;-79
2022/01/28 02:41:02;;;;;;;23.23;11.68;;;5.20;92.50;;;;;;6203746;28;20042;-79
2022/01/28 02:44:13;;;;;;;20.75;8.07;;;5.20;92.30;;;;;;6203612;28;20046;-78
2022/01/28 02:47:18;;;;;;;22.98;9.52;;;5.30;92.30;;;;;;6204075;28;20135;-78
2022/01/28 02:50:20;;;;;;;25.75;10.93;;;5.30;92.20;;;;;;6203564;28;20463;-79
2022/01/28 02:53:26;;;;;;;32.03;9.90;;;5.30;92.20;;;;;;6203898;28;20137;-79
2022/01/28 02:56:36;;;;;;;24.98;9.27;;;5.30;92.20;;;;;;6203088;28;20531;-79
2022/01/28 02:59:38;;;;;;;26.27;11.70;;;5.30;92.10;;;;;;6203461;28;20043;-79
2022/01/28 03:02:40;;;;;;;19.75;9.27;;;5.40;92.10;;;;;;6203721;28;20062;-79
2022/01/28 03:05:42;;;;;;;24.13;11.30;;;5.40;91.90;;;;;;6204158;28;20042;-79
2022/01/28 03:08:51;;;;;;;23.08;9.90;;;5.50;92.00;;;;;;6203095;28;20042;-77
2022/01/28 03:12:11;;;;;;;20.30;9.20;;;5.50;91.90;;;;;;6203059;28;20050;-78
2022/01/28 03:15:18;;;;;;;27.73;11.48;;;5.50;91.80;;;;;;6202388;28;20113;-78
2022/01/28 03:18:29;;;;;;;25.17;10.25;;;5.50;91.70;;;;;;6202461;28;20404;-78
2022/01/28 03:21:43;;;;;;;21.63;10.20;;;5.40;91.80;;;;;;6203175;28;20109;-79
2022/01/28 03:24:51;;;;;;;24.85;9.27;;;5.40;91.80;;;;;;6202404;28;20058;-78
2022/01/28 03:27:55;;;;;;;27.65;10.90;;;5.40;91.90;;;;;;6209840;28;20116;-79
2022/01/28 03:30:56;;;;;;;25.73;10.10;;;5.40;91.80;;;;;;6209259;28;20415;-78
2022/01/28 03:33:58;;;;;;;22.73;10.00;;;5.40;91.90;;;;;;6210698;28;20053;-79
2022/01/28 03:37:00;;;;;;;24.95;7.65;;;5.40;92.00;;;;;;6209192;28;20108;-78
2022/01/28 03:40:06;;;;;;;24.02;9.75;;;5.50;92.00;;;;;;6209607;28;20300;-78
2022/01/28 03:43:08;;;;;;;28.17;10.35;;;5.40;91.90;;;;;;6210361;28;20174;-79
2022/01/28 03:46:10;;;;;;;24.30;9.25;;;5.30;92.00;;;;;;6210761;28;20050;-79
2022/01/28 03:49:12;;;;;;;30.83;10.70;;;5.30;92.20;;;;;;6211745;28;20053;-79
2022/01/28 03:52:14;;;;;;;24.33;9.93;;;5.30;92.20;;;;;;6212002;28;20052;-78
2022/01/28 03:55:17;;;;;;;23.52;11.88;;;5.30;92.30;;;;;;6211023;28;20389;-78
2022/01/28 03:58:19;;;;;;;26.45;9.10;;;5.40;92.30;;;;;;6209790;28;20488;-78
2022/01/28 04:01:25;;;;;;;29.45;10.80;;;5.30;92.30;;;;;;6211369;28;20073;-79
2022/01/28 04:14:42;;;;;;;21.88;10.18;;;4.90;92.60;;;;;;6202247;28;20057;-79
2022/01/28 04:17:44;;;;;;;26.25;11.93;;;4.80;92.90;;;;;;6210510;28;20385;-78
2022/01/28 04:20:46;;;;;;;26.88;10.40;;;4.60;93.10;;;;;;6210034;28;20052;-78
2022/01/28 04:23:48;;;;;;;29.13;9.93;;;4.50;93.30;;;;;;6209902;28;20046;-79
2022/01/28 04:26:51;;;;;;;29.58;10.82;;;4.40;93.50;;;;;;6209703;28;20052;-79
2022/01/28 04:29:53;;;;;;;25.58;11.23;;;4.40;93.60;;;;;;6210900;28;20081;-78
2022/01/28 04:32:55;;;;;;;26.77;12.15;;;4.40;93.70;;;;;;6210303;28;20064;-78
2022/01/28 04:35:57;;;;;;;32.22;10.52;;;4.30;93.80;;;;;;6209718;28;20042;-79
2022/01/28 04:39:06;;;;;;;21.40;9.82;;;4.30;93.90;;;;;;6205123;28;20050;-78
2022/01/28 04:42:19;;;;;;;28.08;10.52;;;4.20;93.90;;;;;;6206546;28;20054;-79
2022/01/28 04:45:28;;;;;;;37.35;11.90;;;4.20;94.20;;;;;;6206616;28;20126;-79
2022/01/28 04:48:36;;;;;;;33.60;12.40;;;4.20;93.90;;;;;;6205677;28;20053;-79
2022/01/28 04:51:53;;;;;;;37.35;12.35;;;4.10;94.00;;;;;;6206266;28;20132;-79
2022/01/28 04:55:05;;;;;;;30.17;11.32;;;4.10;94.00;;;;;;6207710;28;20056;-77
2022/01/28 04:58:33;;;;;;;31.42;11.90;;;4.00;94.10;;;;;;6229979;28;20053;-77
2022/01/28 05:02:03;;;;;;;22.30;8.83;;;4.00;94.20;;;;;;6216136;28;20078;-80
2022/01/28 05:05:30;;;;;;;31.00;11.77;;;4.00;94.40;;;;;;6207924;28;20054;-80
2022/01/28 05:09:11;;;;;;;37.15;13.23;;;4.00;94.40;;;;;;6206745;28;20102;-78
2022/01/28 05:15:50;;;;;;;32.72;12.57;;;4.10;94.40;;;;;;6222367;28;20048;-78
2022/01/28 05:28:54;;;;;;;44.13;14.02;;;4.30;94.20;;;;;;6226693;28;20100;-79
2022/01/28 05:31:57;;;;;;;38.63;12.38;;;4.40;94.30;;;;;;6227533;28;20057;-78
2022/01/28 05:34:59;;;;;;;39.20;14.63;;;4.50;94.20;;;;;;6227242;28;20042;-79
2022/01/28 05:38:01;;;;;;;35.55;12.13;;;4.50;94.20;;;;;;6227824;28;20048;-79
2022/01/28 05:41:03;;;;;;;46.53;13.15;;;4.50;94.00;;;;;;6227919;28;20056;-79
2022/01/28 05:44:05;;;;;;;40.85;13.63;;;4.50;94.00;;;;;;6233295;28;20041;-79
2022/01/28 05:47:13;;;;;;;39.58;13.32;;;4.60;94.00;;;;;;6241807;28;20060;-80
2022/01/28 05:50:15;;;;;;;38.78;14.25;;;4.60;94.00;;;;;;6250785;28;20057;-80
2022/01/28 05:53:17;;;;;;;38.35;11.98;;;4.60;94.00;;;;;;6250410;28;20495;-79
2022/01/28 05:56:19;;;;;;;52.22;14.10;;;4.50;93.90;;;;;;6250863;28;20068;-79
2022/01/28 05:59:20;;;;;;;39.10;11.48;;;4.40;94.10;;;;;;6251145;28;20152;-79
2022/01/28 06:02:24;;;;;;;53.22;16.05;;;4.30;94.20;;;;;;6251157;28;20049;-79
2022/01/28 06:05:29;;;;;;;41.78;12.75;;;4.20;94.40;;;;;;6230838;28;20494;-80
2022/01/28 06:08:31;;;;;;;45.30;12.63;;;4.10;94.50;;;;;;6227034;28;20053;-79
2022/01/28 06:11:33;;;;;;;41.72;13.55;;;4.10;94.70;;;;;;6227691;28;20053;-79
2022/01/28 06:14:34;;;;;;;37.15;12.85;;;4.10;94.70;;;;;;6212333;28;20056;-78
2022/01/28 06:17:38;;;;;;;46.50;13.95;;;4.10;94.80;;;;;;6244787;28;20060;-78
2022/01/28 06:20:40;;;;;;;46.13;12.95;;;4.10;94.80;;;;;;6223821;28;20078;-79
2022/01/28 06:23:41;;;;;;;38.60;11.38;;;4.10;94.70;;;;;;6211625;28;20129;-79
2022/01/28 06:26:43;;;;;;;44.92;13.38;;;4.10;94.80;;;;;;6210908;28;20046;-77
2022/01/28 06:29:45;;;;;;;46.10;13.60;;;4.10;94.60;;;;;;6216247;28;20052;-78
2022/01/28 06:32:48;;;;;;;40.53;13.02;;;4.00;94.60;;;;;;6219218;28;20060;-80
2022/01/28 06:35:50;;;;;;;42.33;13.93;;;4.00;94.70;;;;;;6219356;28;20404;-80
2022/01/28 06:38:52;;;;;;;37.53;13.73;;;4.00;94.70;;;;;;6202936;28;20089;-79
2022/01/28 06:41:54;;;;;;;54.53;17.48;;;3.90;94.70;;;;;;6203098;28;20420;-79
2022/01/28 06:44:55;;;;;;;41.92;12.27;;;4.00;94.60;;;;;;6223327;28;20052;-79
2022/01/28 06:47:58;;;;;;;49.28;16.15;;;3.90;94.70;;;;;;6248041;28;20171;-79
2022/01/28 06:51:00;;;;;;;48.60;16.65;;;3.90;94.80;;;;;;6250352;28;20060;-81
2022/01/28 06:54:02;;;;;;;38.17;14.23;;;3.90;94.80;;;;;;6250669;28;20053;-81
2022/01/28 06:57:05;;;;;;;51.15;15.45;;;4.10;94.80;;;;;;6250188;28;20056;-80
2022/01/28 07:00:09;;;;;;;51.03;16.63;;;4.00;94.60;;;;;;6265785;23;20123;-79
2022/01/28 07:03:14;;;;;;;52.50;15.55;;;4.10;94.80;;;;;;6230378;28;20049;-81
2022/01/28 07:06:16;;;;;;;58.42;17.73;;;4.20;94.40;;;;;;6228739;28;20045;-80
2022/01/28 07:09:18;;;;;;;49.65;13.98;;;4.30;94.20;;;;;;6229453;28;20058;-79
2022/01/28 07:12:20;;;;;;;42.13;16.55;;;4.40;94.10;;;;;;6229217;28;20048;-81
2022/01/28 07:15:24;;;;;;;51.53;16.08;;;4.40;94.00;;;;;;6240513;28;20491;-80
2022/01/28 07:18:28;;;;;;;50.85;15.93;;;4.50;94.00;;;;;;6252917;28;20045;-80
2022/01/28 07:21:30;;;;;;;46.90;16.38;;;4.50;93.90;;;;;;6237635;28;20043;-79
2022/01/28 07:24:32;;;;;;;41.38;15.73;;;4.60;93.90;;;;;;6204071;28;20060;-80
2022/01/28 07:27:34;;;;;;;42.78;13.63;;;4.60;93.80;;;;;;6202680;28;20046;-80
2022/01/28 07:30:35;;;;;;;48.45;16.55;;;4.60;93.90;;;;;;6202196;28;20070;-79
2022/01/28 07:33:39;;;;;;;44.42;14.25;;;4.60;93.70;;;;;;6203508;28;20461;-80
2022/01/28 07:36:41;;;;;;;42.60;13.38;;;4.60;93.80;;;;;;6202486;28;20284;-80
2022/01/28 07:39:43;;;;;;;37.75;13.25;;;4.70;93.80;;;;;;6203283;28;20051;-82
2022/01/28 07:42:44;;;;;;;34.47;13.20;;;4.70;93.70;;;;;;6202815;28;20050;-79
2022/01/28 07:45:46;;;;;;;29.75;11.70;;;4.80;93.60;;;;;;6238603;28;20485;-81
2022/01/28 07:48:50;;;;;;;42.58;12.38;;;4.90;93.60;;;;;;6252758;28;20049;-80
2022/01/28 07:51:52;;;;;;;42.88;12.27;;;4.90;93.50;;;;;;6252111;28;20423;-82
2022/01/28 07:54:54;;;;;;;43.03;12.40;;;5.00;93.30;;;;;;6252630;28;20129;-80
2022/01/28 07:57:55;;;;;;;32.95;11.43;;;5.00;93.30;;;;;;6252387;28;20060;-81
2022/01/28 08:00:57;;;;;;;37.97;11.95;;;5.10;93.10;;;;;;6251145;28;20550;-80
2022/01/28 08:04:00;;;;;;;35.22;12.80;;;5.10;92.90;;;;;;6251512;28;20057;-81
2022/01/28 08:07:02;;;;;;;34.08;12.00;;;5.20;93.00;;;;;;6251547;28;20051;-80
2022/01/28 08:10:04;;;;;;;33.17;11.20;;;5.30;92.90;;;;;;6253113;28;20046;-79
2022/01/28 08:13:06;;;;;;;30.48;11.55;;;5.30;92.60;;;;;;6251960;28;20072;-79
2022/01/28 08:16:08;;;;;;;33.55;11.45;;;5.40;92.60;;;;;;6246862;28;20042;-80
2022/01/28 08:19:11;;;;;;;38.47;12.23;;;5.40;92.40;;;;;;6257123;28;20049;-78
2022/01/28 08:22:13;;;;;;;35.55;12.68;;;5.50;92.40;;;;;;6224372;28;20046;-80
2022/01/28 08:25:15;;;;;;;36.97;12.13;;;5.60;92.20;;;;;;6231547;28;20054;-80
2022/01/28 08:28:17;;;;;;;32.22;13.07;;;5.70;92.10;;;;;;6230445;28;20133;-80
2022/01/28 08:31:19;;;;;;;28.90;11.48;;;5.70;91.90;;;;;;6231872;28;20084;-80
2022/01/28 08:34:22;;;;;;;27.25;12.32;;;5.80;91.70;;;;;;6234344;28;20140;-80
2022/01/28 08:37:24;;;;;;;26.75;10.00;;;5.80;91.60;;;;;;6232098;28;20052;-80
2022/01/28 08:40:27;;;;;;;29.00;11.93;;;5.80;91.70;;;;;;6232816;28;20050;-80
2022/01/28 08:43:29;;;;;;;26.90;12.80;;;5.90;91.50;;;;;;6231061;28;20512;-81
2022/01/28 08:46:31;;;;;;;27.23;11.63;;;5.90;91.40;;;;;;6248408;28;20184;-80
2022/01/28 08:49:34;;;;;;;31.65;13.45;;;6.00;91.40;;;;;;6258087;28;20156;-80
2022/01/28 08:52:36;;;;;;;30.58;11.57;;;6.10;91.30;;;;;;6257232;28;20148;-80
2022/01/28 08:55:38;;;;;;;25.95;10.85;;;6.20;91.00;;;;;;6256617;28;20056;-82
2022/01/28 08:58:40;;;;;;;24.30;10.75;;;6.20;90.80;;;;;;6257173;28;20415;-80
2022/01/28 09:01:42;;;;;;;31.80;12.65;;;6.30;90.60;;;;;;6257287;28;20568;-81
2022/01/28 09:04:46;;;;;;;26.80;9.98;;;6.40;90.40;;;;;;6255495;28;20050;-80
2022/01/28 09:07:49;;;;;;;23.90;10.07;;;6.60;90.10;;;;;;6257055;28;20042;-81
2022/01/28 09:10:59;;;;;;;23.02;9.43;;;6.70;89.60;;;;;;6213392;28;20042;-80
2022/01/28 09:14:01;;;;;;;22.83;11.02;;;6.70;89.60;;;;;;6222739;28;20049;-81
2022/01/28 09:17:03;;;;;;;21.83;9.13;;;6.90;88.70;;;;;;6236683;28;20053;-80
2022/01/28 09:20:07;;;;;;;17.75;7.93;;;6.90;88.30;;;;;;6230848;28;20054;-80
2022/01/28 09:23:10;;;;;;;25.55;8.93;;;7.00;88.00;;;;;;6234936;28;20053;-81
2022/01/28 09:26:11;;;;;;;31.17;11.48;;;7.20;89.50;;;;;;6234444;28;20483;-80
2022/01/28 09:29:13;;;;;;;19.80;9.75;;;7.30;87.40;;;;;;6234374;28;20056;-80
2022/01/28 09:32:16;;;;;;;22.35;9.65;;;7.30;86.50;;;;;;6238081;28;20106;-80
2022/01/28 09:35:20;;;;;;;22.50;9.57;;;7.30;86.30;;;;;;6229680;28;20049;-80
2022/01/28 09:38:21;;;;;;;22.27;9.45;;;7.30;86.60;;;;;;6229975;28;20419;-80
2022/01/28 09:41:23;;;;;;;17.77;7.65;;;7.40;86.90;;;;;;6229639;28;20045;-81
2022/01/28 09:44:25;;;;;;;19.55;9.32;;;7.50;86.00;;;;;;6237404;28;20175;-80
2022/01/28 09:47:27;;;;;;;19.83;8.80;;;7.50;85.60;;;;;;6247420;28;20046;-80
2022/01/28 09:50:32;;;;;;;22.10;9.85;;;7.60;85.50;;;;;;6257380;28;20056;-80
2022/01/28 09:53:34;;;;;;;18.33;7.28;;;7.70;85.30;;;;;;6256655;28;20071;-81
2022/01/28 09:56:36;;;;;;;24.10;9.57;;;7.80;84.30;;;;;;6253733;28;20049;-80
2022/01/28 09:59:39;;;;;;;19.88;10.10;;;7.80;84.40;;;;;;6255325;28;20422;-84
2022/01/28 10:02:48;;;;;;;17.80;8.75;;;7.90;84.10;;;;;;6257330;28;20056;-80
2022/01/28 10:05:51;;;;;;;21.45;8.02;;;8.00;83.60;;;;;;6225518;28;20060;-79
2022/01/28 10:08:54;;;;;;;19.15;8.20;;;8.00;83.40;;;;;;6229660;28;20133;-81
2022/01/28 10:12:15;;;;;;;19.30;9.13;;;8.00;83.20;;;;;;6228993;28;20045;-80
2022/01/28 10:15:19;;;;;;;21.80;10.10;;;8.00;82.80;;;;;;6236843;28;20052;-81
2022/01/28 10:18:21;;;;;;;19.65;8.93;;;8.00;83.00;;;;;;6204926;28;20381;-81
2022/01/28 10:21:30;;;;;;;17.08;8.88;;;7.90;82.60;;;;;;6204014;28;20129;-81
2022/01/28 10:24:33;;;;;;;22.33;8.23;;;7.80;82.90;;;;;;6203737;28;20074;-82
2022/01/28 10:27:35;;;;;;;19.42;7.35;;;7.90;83.70;;;;;;6203468;28;20042;-80
2022/01/28 10:30:39;;;;;;;19.45;8.45;;;8.10;83.60;;;;;;6203994;28;20145;-83
2022/01/28 10:33:41;;;;;;;15.48;7.78;;;8.40;82.40;;;;;;6204262;28;20129;-82
2022/01/28 10:36:46;;;;;;;21.45;8.35;;;8.60;81.90;;;;;;6203955;28;20104;-82
2022/01/28 10:39:50;;;;;;;17.92;7.53;;;8.60;81.60;;;;;;6203514;28;20520;-80
2022/01/28 10:42:52;;;;;;;18.77;8.05;;;8.70;81.30;;;;;;6203088;28;20049;-79
2022/01/28 10:46:05;;;;;;;26.90;8.40;;;8.80;80.50;;;;;;6241151;28;20056;-81
2022/01/28 10:49:08;;;;;;;18.75;9.13;;;8.60;79.90;;;;;;6251315;28;20536;-81
2022/01/28 10:52:12;;;;;;;21.35;8.77;;;8.40;80.50;;;;;;6251495;28;20053;-81
2022/01/28 10:55:18;;;;;;;22.10;8.85;;;8.20;81.60;;;;;;6252424;28;20171;-81
2022/01/28 10:58:21;;;;;;;20.02;8.82;;;8.10;82.40;;;;;;6252081;28;20049;-81
2022/01/28 11:01:25;;;;;;;15.73;8.82;;;8.10;82.60;;;;;;6252752;28;20064;-81
2022/01/28 11:04:27;;;;;;;20.67;8.25;;;8.20;83.10;;;;;;6233623;28;20068;-81
2022/01/28 11:07:30;;;;;;;17.67;8.05;;;8.30;83.10;;;;;;6203369;28;20121;-81
2022/01/28 11:10:32;;;;;;;19.42;8.07;;;8.40;82.80;;;;;;6203034;28;20054;-82
2022/01/28 11:13:34;;;;;;;21.83;8.48;;;8.50;82.30;;;;;;6211507;28;20052;-81
2022/01/28 11:16:37;;;;;;;16.85;7.75;;;8.60;82.40;;;;;;6232672;28;20452;-82
2022/01/28 11:19:40;;;;;;;20.52;9.52;;;8.70;82.20;;;;;;6226966;28;20042;-82
2022/01/28 11:22:51;;;;;;;21.08;8.38;;;8.80;81.50;;;;;;6227903;28;20049;-82
2022/01/28 11:26:15;;;;;;;17.35;8.55;;;8.80;81.60;;;;;;6228080;28;20422;-80
2022/01/28 11:29:24;;;;;;;23.13;9.32;;;8.70;82.00;;;;;;6227320;28;20053;-82
2022/01/28 11:32:26;;;;;;;17.35;8.98;;;8.70;82.40;;;;;;6227080;28;20054;-82
2022/01/28 11:35:29;;;;;;;19.92;9.80;;;8.70;81.90;;;;;;6226200;28;20424;-81
2022/01/28 11:38:42;;;;;;;17.55;7.82;;;8.70;81.90;;;;;;6225895;28;20065;-82
2022/01/28 11:42:00;;;;;;;20.83;9.18;;;8.70;82.10;;;;;;6227314;28;20052;-81
2022/01/28 11:45:05;;;;;;;21.48;8.77;;;8.90;82.50;;;;;;6234388;28;20503;-81
2022/01/28 11:48:10;;;;;;;18.27;8.65;;;9.20;81.40;;;;;;6258889;28;20503;-82
2022/01/28 11:51:15;;;;;;;15.73;7.50;;;9.40;81.20;;;;;;6257145;28;20641;-82
2022/01/28 11:54:21;;;;;;;20.40;8.55;;;9.70;80.40;;;;;;6255952;28;20061;-82
2022/01/28 11:57:26;;;;;;;24.27;7.28;;;9.90;78.80;;;;;;6257385;28;20136;-82
2022/01/28 12:00:31;;;;;;;14.27;6.88;;;10.00;77.90;;;;;;6255977;28;20074;-82
2022/01/28 12:03:33;;;;;;;16.02;8.00;;;10.40;77.10;;;;;;6255886;28;20100;-81
2022/01/28 12:06:35;;;;;;;15.13;7.40;;;10.70;76.10;;;;;;6219878;28;20057;-82
2022/01/28 12:09:40;;;;;;;17.50;6.97;;;11.10;74.30;;;;;;6206775;28;20085;-81
2022/01/28 12:13:00;;;;;;;24.73;7.97;;;11.10;72.50;;;;;;6206557;28;20181;-82
2022/01/28 12:16:13;;;;;;;19.67;7.43;;;11.00;72.30;;;;;;6243119;28;20079;-81
2022/01/28 12:19:19;;;;;;;17.52;8.50;;;10.80;72.80;;;;;;6255649;28;20388;-82
2022/01/28 12:22:21;;;;;;;13.95;7.40;;;10.70;73.30;;;;;;6254534;28;20056;-82
2022/01/28 12:25:48;;;;;;;19.55;7.88;;;10.50;73.70;;;;;;6255597;28;20501;-82
2022/01/28 12:28:56;;;;;;;15.13;7.72;;;10.40;74.50;;;;;;6254798;28;20049;-81
2022/01/28 12:31:59;;;;;;;14.48;5.55;;;10.40;75.00;;;;;;6256022;28;20081;-81
2022/01/28 12:35:03;;;;;;;14.35;5.40;;;10.70;74.70;;;;;;6257504;28;20045;-81
2022/01/28 12:38:05;;;;;;;15.40;6.40;;;11.20;72.20;;;;;;6260488;28;20045;-83
2022/01/28 12:41:09;;;;;;;11.48;5.97;;;11.30;70.10;;;;;;6261159;28;20053;-82
2022/01/28 12:44:15;;;;;;;11.45;5.03;;;11.20;70.30;;;;;;6263622;28;20061;-82
2022/01/28 12:47:16;;;;;;;17.98;6.78;;;10.90;69.30;;;;;;6250242;28;20045;-83
2022/01/28 12:50:20;;;;;;;17.52;7.68;;;10.60;70.20;;;;;;6258125;28;20418;-82
2022/01/28 12:53:35;;;;;;;11.68;5.53;;;10.30;71.70;;;;;;6256293;28;20060;-84
2022/01/28 12:56:41;;;;;;;14.25;5.80;;;10.40;71.50;;;;;;6256045;28;20049;-83
2022/01/28 12:59:46;;;;;;;12.38;5.55;;;10.60;70.90;;;;;;6254419;28;20046;-85
2022/01/28 13:02:51;;;;;;;10.68;5.07;;;10.70;70.70;;;;;;6270224;23;20046;-82
2022/01/28 13:05:57;;;;;;;14.68;5.78;;;10.70;70.60;;;;;;6228436;28;20151;-81
2022/01/28 13:08:59;;;;;;;14.85;4.80;;;10.70;70.20;;;;;;6245285;28;20105;-79
2022/01/28 13:12:04;;;;;;;16.83;6.18;;;10.80;69.90;;;;;;6255582;28;20076;-80
2022/01/28 13:15:09;;;;;;;12.52;4.75;;;11.00;69.30;;;;;;6255887;28;20053;-82
2022/01/28 13:18:11;;;;;;;13.85;5.18;;;11.10;67.50;;;;;;6232316;28;20557;-82
2022/01/28 13:21:13;;;;;;;11.95;5.25;;;11.20;67.40;;;;;;6230560;28;20058;-82
2022/01/28 13:24:17;;;;;;;22.00;6.15;;;11.20;67.70;;;;;;6230676;28;20057;-83
2022/01/28 13:27:22;;;;;;;11.30;4.72;;;11.00;67.80;;;;;;6232082;28;20046;-84
2022/01/28 13:30:24;;;;;;;11.02;5.28;;;10.90;67.20;;;;;;6231020;28;20082;-80
2022/01/28 13:33:29;;;;;;;12.55;4.97;;;10.90;68.00;;;;;;6230032;28;20135;-80
2022/01/28 13:36:44;;;;;;;12.50;5.40;;;10.90;68.00;;;;;;6228538;28;20587;-82
2022/01/28 13:39:46;;;;;;;13.48;6.05;;;10.90;67.60;;;;;;6229411;28;20050;-80
2022/01/28 13:42:59;;;;;;;16.60;8.27;;;10.90;67.40;;;;;;6227867;28;20583;-80
2022/01/28 13:46:15;;;;;;;18.73;7.95;;;10.80;67.10;;;;;;6242437;28;20063;-80
2022/01/28 13:49:17;;;;;;;15.00;8.73;;;10.80;67.10;;;;;;6257026;28;20043;-81
2022/01/28 13:52:25;;;;;;;15.32;8.68;;;10.80;67.20;;;;;;6267116;28;20053;-82
2022/01/28 13:55:33;;;;;;;16.13;7.47;;;11.20;66.30;;;;;;6253000;28;20080;-78
2022/01/28 13:58:50;;;;;;;12.10;5.70;;;11.70;65.30;;;;;;6254662;28;20401;-80
2022/01/28 14:01:54;;;;;;;9.27;4.70;;;11.90;63.20;;;;;;6252370;28;20053;-77
2022/01/28 14:04:56;;;;;;;11.07;5.20;;;11.90;63.40;;;;;;6254904;28;20049;-78
2022/01/28 14:07:58;;;;;;;11.68;4.90;;;12.00;63.20;;;;;;6237419;28;20037;-80
2022/01/28 14:11:00;;;;;;;9.95;3.90;;;12.00;63.30;;;;;;6230302;28;20450;-81
2022/01/28 14:14:23;;;;;;;15.82;4.80;;;11.90;62.80;;;;;;6236747;28;20180;-79
2022/01/28 14:17:25;;;;;;;11.40;5.90;;;11.90;62.20;;;;;;6241955;28;20049;-80
2022/01/28 14:20:27;;;;;;;13.18;5.80;;;11.60;62.90;;;;;;6253111;28;20053;-80
2022/01/28 14:23:29;;;;;;;9.13;4.65;;;11.30;63.50;;;;;;6253583;28;20467;-81
2022/01/28 14:26:31;;;;;;;11.23;5.07;;;11.10;63.60;;;;;;6251831;28;20049;-80
2022/01/28 14:29:50;;;;;;;11.48;5.57;;;10.90;64.50;;;;;;6252301;28;20525;-81
2022/01/28 14:32:53;;;;;;;7.88;4.60;;;10.80;65.10;;;;;;6251309;28;20048;-80
2022/01/28 14:35:55;;;;;;;14.10;5.38;;;10.90;65.30;;;;;;6251253;28;20049;-80
2022/01/28 14:38:57;;;;;;;15.98;7.28;;;10.90;65.60;;;;;;6250249;28;20045;-79
2022/01/28 14:42:02;;;;;;;14.27;6.05;;;10.80;66.10;;;;;;6251128;28;20055;-81
2022/01/28 14:45:06;;;;;;;18.58;7.10;;;10.70;66.70;;;;;;6240406;28;20060;-79
2022/01/28 14:48:08;;;;;;;13.77;7.68;;;10.90;66.40;;;;;;6248147;28;20041;-81
2022/01/28 14:51:11;;;;;;;19.00;9.15;;;11.10;65.90;;;;;;6250132;28;20059;-82
2022/01/28 14:54:13;;;;;;;19.63;8.73;;;11.10;65.70;;;;;;6250449;28;20052;-82
2022/01/28 14:57:15;;;;;;;41.28;23.02;;;11.20;65.60;;;;;;6250047;28;20521;-80
2022/01/28 15:00:18;;;;;;;46.88;26.67;;;11.20;65.50;;;;;;6250718;28;20041;-81
2022/01/28 15:03:20;;;;;;;26.00;13.48;;;11.10;65.10;;;;;;6249334;28;20045;-82
2022/01/28 15:06:22;;;;;;;15.88;7.35;;;10.90;65.40;;;;;;6249762;28;20053;-82
2022/01/28 15:09:24;;;;;;;23.40;7.95;;;10.70;66.40;;;;;;6230375;28;20052;-81
2022/01/28 15:12:26;;;;;;;12.43;6.53;;;10.40;67.20;;;;;;6219793;28;20136;-81
2022/01/28 15:15:29;;;;;;;15.90;7.97;;;10.20;67.70;;;;;;6228169;28;20097;-79
2022/01/28 15:18:31;;;;;;;16.58;5.38;;;9.90;68.70;;;;;;6249741;28;20446;-80
2022/01/28 15:21:33;;;;;;;13.65;7.40;;;9.70;69.50;;;;;;6248024;28;20430;-82
2022/01/28 15:24:35;;;;;;;19.15;6.60;;;9.50;70.30;;;;;;6250364;28;20057;-82
2022/01/28 15:27:36;;;;;;;12.32;6.32;;;9.20;71.20;;;;;;6250290;28;20055;-80
2022/01/28 15:34:18;;;;;;;15.38;5.88;;;8.80;72.70;;;;;;6250235;28;20499;-80
2022/01/28 15:37:20;;;;;;;17.08;5.65;;;8.70;73.40;;;;;;6250003;28;20128;-79
2022/01/28 15:40:22;;;;;;;21.55;6.72;;;8.60;74.00;;;;;;6249659;28;20132;-81
2022/01/28 15:43:24;;;;;;;13.73;5.53;;;8.60;74.30;;;;;;6246635;28;20060;-81
2022/01/28 15:46:28;;;;;;;12.82;6.18;;;8.60;74.60;;;;;;6242720;28;20085;-80
2022/01/28 15:49:30;;;;;;;13.27;6.03;;;8.40;74.90;;;;;;6253362;28;20045;-81
2022/01/28 15:52:33;;;;;;;15.63;6.78;;;8.20;75.90;;;;;;6250013;28;20056;-79
2022/01/28 15:55:34;;;;;;;12.10;5.53;;;8.00;76.60;;;;;;6239607;28;20038;-77
2022/01/28 15:58:36;;;;;;;18.25;8.45;;;7.70;77.70;;;;;;6192800;28;20042;-80
2022/01/28 16:01:39;;;;;;;18.70;7.70;;;7.60;78.40;;;;;;6225879;28;20057;-80
2022/01/28 16:04:44;;;;;;;19.95;8.45;;;7.40;79.10;;;;;;6224860;28;20050;-78
2022/01/28 16:07:46;;;;;;;17.08;7.38;;;7.30;80.10;;;;;;6225344;28;20053;-80
2022/01/28 16:11:02;;;;;;;16.50;7.32;;;7.30;80.80;;;;;;6203526;28;20050;-79
2022/01/28 16:14:15;;;;;;;16.95;6.30;;;7.10;81.20;;;;;;6217364;28;20052;-80
2022/01/28 16:17:36;;;;;;;15.07;6.65;;;7.10;81.60;;;;;;6239692;28;20054;-79
2022/01/28 16:20:40;;;;;;;17.08;7.78;;;7.00;82.00;;;;;;6249932;28;20049;-79
2022/01/28 16:23:42;;;;;;;20.33;7.10;;;6.90;82.40;;;;;;6250687;28;20069;-78
2022/01/28 16:26:44;;;;;;;26.98;7.38;;;6.80;83.00;;;;;;6250419;28;20041;-79
2022/01/28 16:29:45;;;;;;;22.48;8.55;;;6.70;83.60;;;;;;6250834;28;20136;-79
2022/01/28 16:32:49;;;;;;;15.38;6.45;;;6.70;84.10;;;;;;6250840;28;20075;-81
2022/01/28 16:35:51;;;;;;;23.13;7.65;;;6.60;84.40;;;;;;6255375;28;20041;-80
2022/01/28 16:38:54;;;;;;;20.42;7.60;;;6.70;84.70;;;;;;6254117;28;20421;-80